sensor_id;sensor_type;location;lat;lon;timestamp;temperature;humidity
74178;DHT22;62540;48.456;-4.456;2022-12-17T00:01:51;3.60;67.20
74178;DHT22;62540;48.456;-4.456;2022-12-17T00:04:35;3.59;66.99
74178;DHT22;62540;48.456;-4.456;2022-12-17T00:07:19;3.56;67.02
74178;DHT22;62540;48.456;-4.456;2022-12-17T00:10:03;3.53;67.16
74178;DHT22;62540;48.456;-4.456;2022-12-17T00:12:48;3.50;67.26
74178;DHT22;62540;48.456;-4.456;2022-12-17T00:15:33;3.51;67.06
74178;DHT22;62540;48.456;-4.456;2022-12-17T00:18:17;3.50;67.18
74178;DHT22;62540;48.456;-4.456;2022-12-17T00:21:01;3.47;67.25
74178;DHT22;62540;48.456;-4.456;2022-12-17T00:23:45;3.49;67.31
74178;DHT22;62540;48.456;-4.456;2022-12-17T00:26:30;3.49;67.24
74178;DHT22;62540;48.456;-4.456;2022-12-17T00:29:14;3.46;67.21
74178;DHT22;62540;48.456;-4.456;2022-12-17T00:31:58;3.44;66.77
74178;DHT22;62540;48.456;-4.456;2022-12-17T00:34:42;3.41;66.55
74178;DHT22;62540;48.456;-4.456;2022-12-17T00:37:26;3.39;66.50
74178;DHT22;62540;48.456;-4.456;2022-12-17T00:40:10;3.34;66.52
74178;DHT22;62540;48.456;-4.456;2022-12-17T00:43:08;3.30;66.40
74178;DHT22;62540;48.456;-4.456;2022-12-17T00:45:53;3.32;66.33
74178;DHT22;62540;48.456;-4.456;2022-12-17T00:48:37;3.27;66.59
74178;DHT22;62540;48.456;-4.456;2022-12-17T00:51:21;3.23;66.67
74178;DHT22;62540;48.456;-4.456;2022-12-17T00:54:05;3.24;66.89
74178;DHT22;62540;48.456;-4.456;2022-12-17T00:56:50;3.22;66.98
74178;DHT22;62540;48.456;-4.456;2022-12-17T00:59:34;3.20;67.01
74178;DHT22;62540;48.456;-4.456;2022-12-17T01:02:18;3.18;67.02
74178;DHT22;62540;48.456;-4.456;2022-12-17T01:05:02;3.15;66.89
74178;DHT22;62540;48.456;-4.456;2022-12-17T01:07:46;3.12;67.13
74178;DHT22;62540;48.456;-4.456;2022-12-17T01:10:30;3.11;67.37
74178;DHT22;62540;48.456;-4.456;2022-12-17T01:13:14;3.09;67.32
74178;DHT22;62540;48.456;-4.456;2022-12-17T01:16:11;3.05;67.25
74178;DHT22;62540;48.456;-4.456;2022-12-17T01:18:55;3.03;67.25
74178;DHT22;62540;48.456;-4.456;2022-12-17T01:21:40;3.03;67.31
74178;DHT22;62540;48.456;-4.456;2022-12-17T01:24:25;2.98;67.57
74178;DHT22;62540;48.456;-4.456;2022-12-17T01:27:09;2.96;67.34
74178;DHT22;62540;48.456;-4.456;2022-12-17T01:29:53;2.93;67.31
74178;DHT22;62540;48.456;-4.456;2022-12-17T01:32:37;2.92;67.17
74178;DHT22;62540;48.456;-4.456;2022-12-17T01:35:21;2.89;67.26
74178;DHT22;62540;48.456;-4.456;2022-12-17T01:38:16;2.93;67.53
74178;DHT22;62540;48.456;-4.456;2022-12-17T01:41:01;2.92;67.45
74178;DHT22;62540;48.456;-4.456;2022-12-17T01:43:46;2.88;67.51
74178;DHT22;62540;48.456;-4.456;2022-12-17T01:46:40;2.88;67.28
74178;DHT22;62540;48.456;-4.456;2022-12-17T01:49:26;2.85;67.42
74178;DHT22;62540;48.456;-4.456;2022-12-17T01:52:11;2.85;67.48
74178;DHT22;62540;48.456;-4.456;2022-12-17T01:54:56;2.84;67.47
74178;DHT22;62540;48.456;-4.456;2022-12-17T01:57:40;2.82;67.66
74178;DHT22;62540;48.456;-4.456;2022-12-17T02:00:24;2.80;67.78
74178;DHT22;62540;48.456;-4.456;2022-12-17T02:03:16;2.75;67.70
74178;DHT22;62540;48.456;-4.456;2022-12-17T02:06:39;2.78;67.78
74178;DHT22;62540;48.456;-4.456;2022-12-17T02:09:39;2.71;67.64
74178;DHT22;62540;48.456;-4.456;2022-12-17T02:12:58;2.72;67.59
74178;DHT22;62540;48.456;-4.456;2022-12-17T02:15:50;2.68;67.54
74178;DHT22;62540;48.456;-4.456;2022-12-17T02:18:42;2.65;67.89
74178;DHT22;62540;48.456;-4.456;2022-12-17T02:21:29;2.71;68.07
74178;DHT22;62540;48.456;-4.456;2022-12-17T02:27:03;2.64;67.54
74178;DHT22;62540;48.456;-4.456;2022-12-17T02:29:51;2.64;67.80
74178;DHT22;62540;48.456;-4.456;2022-12-17T02:32:38;2.65;67.94
74178;DHT22;62540;48.456;-4.456;2022-12-17T02:35:28;2.65;67.65
74178;DHT22;62540;48.456;-4.456;2022-12-17T02:38:20;2.62;67.89
74178;DHT22;62540;48.456;-4.456;2022-12-17T02:41:06;2.60;68.01
74178;DHT22;62540;48.456;-4.456;2022-12-17T02:43:51;2.57;68.25
74178;DHT22;62540;48.456;-4.456;2022-12-17T02:46:37;2.58;68.12
74178;DHT22;62540;48.456;-4.456;2022-12-17T02:49:23;2.55;68.18
74178;DHT22;62540;48.456;-4.456;2022-12-17T02:52:07;2.58;68.05
74178;DHT22;62540;48.456;-4.456;2022-12-17T02:54:51;2.55;67.99
74178;DHT22;62540;48.456;-4.456;2022-12-17T02:57:35;2.55;67.88
74178;DHT22;62540;48.456;-4.456;2022-12-17T03:00:19;2.55;68.08
74178;DHT22;62540;48.456;-4.456;2022-12-17T03:03:03;2.57;68.16
74178;DHT22;62540;48.456;-4.456;2022-12-17T03:05:47;2.57;68.01
74178;DHT22;62540;48.456;-4.456;2022-12-17T03:08:31;2.57;68.04
74178;DHT22;62540;48.456;-4.456;2022-12-17T03:11:15;2.55;68.14
74178;DHT22;62540;48.456;-4.456;2022-12-17T03:13:58;2.54;68.18
74178;DHT22;62540;48.456;-4.456;2022-12-17T03:16:42;2.53;68.57
74178;DHT22;62540;48.456;-4.456;2022-12-17T03:19:26;2.50;68.41
74178;DHT22;62540;48.456;-4.456;2022-12-17T03:22:10;2.53;68.69
74178;DHT22;62540;48.456;-4.456;2022-12-17T03:24:54;2.48;68.60
74178;DHT22;62540;48.456;-4.456;2022-12-17T03:27:38;2.50;68.77
74178;DHT22;62540;48.456;-4.456;2022-12-17T03:30:22;2.50;69.14
74178;DHT22;62540;48.456;-4.456;2022-12-17T03:33:07;2.50;69.17
74178;DHT22;62540;48.456;-4.456;2022-12-17T03:35:52;2.47;69.16
74178;DHT22;62540;48.456;-4.456;2022-12-17T03:38:37;2.45;69.40
74178;DHT22;62540;48.456;-4.456;2022-12-17T03:41:21;2.45;69.44
74178;DHT22;62540;48.456;-4.456;2022-12-17T03:44:05;2.45;69.96
74178;DHT22;62540;48.456;-4.456;2022-12-17T03:46:49;2.47;70.15
74178;DHT22;62540;48.456;-4.456;2022-12-17T03:49:33;2.43;70.23
74178;DHT22;62540;48.456;-4.456;2022-12-17T03:52:17;2.47;69.96
74178;DHT22;62540;48.456;-4.456;2022-12-17T03:55:01;2.48;70.42
74178;DHT22;62540;48.456;-4.456;2022-12-17T03:57:45;2.45;69.95
74178;DHT22;62540;48.456;-4.456;2022-12-17T04:00:29;2.47;70.22
74178;DHT22;62540;48.456;-4.456;2022-12-17T04:03:12;2.47;69.90
74178;DHT22;62540;48.456;-4.456;2022-12-17T04:05:56;2.48;69.92
74178;DHT22;62540;48.456;-4.456;2022-12-17T04:08:40;2.51;70.18
74178;DHT22;62540;48.456;-4.456;2022-12-17T04:11:24;2.55;70.24
74178;DHT22;62540;48.456;-4.456;2022-12-17T04:14:08;2.57;70.32
74178;DHT22;62540;48.456;-4.456;2022-12-17T04:16:52;2.54;71.13
74178;DHT22;62540;48.456;-4.456;2022-12-17T04:19:36;2.54;70.78
74178;DHT22;62540;48.456;-4.456;2022-12-17T04:22:20;2.54;70.68
74178;DHT22;62540;48.456;-4.456;2022-12-17T04:25:04;2.51;70.78
74178;DHT22;62540;48.456;-4.456;2022-12-17T04:27:48;2.53;70.86
74178;DHT22;62540;48.456;-4.456;2022-12-17T04:30:32;2.55;70.68
74178;DHT22;62540;48.456;-4.456;2022-12-17T04:33:16;2.54;70.84
74178;DHT22;62540;48.456;-4.456;2022-12-17T04:36:00;2.53;70.90
74178;DHT22;62540;48.456;-4.456;2022-12-17T04:38:44;2.54;70.53
74178;DHT22;62540;48.456;-4.456;2022-12-17T04:41:27;2.53;70.67
74178;DHT22;62540;48.456;-4.456;2022-12-17T04:44:11;2.51;70.94
74178;DHT22;62540;48.456;-4.456;2022-12-17T04:46:55;2.51;70.72
74178;DHT22;62540;48.456;-4.456;2022-12-17T04:49:39;2.51;70.80
74178;DHT22;62540;48.456;-4.456;2022-12-17T04:52:23;2.50;70.42
74178;DHT22;62540;48.456;-4.456;2022-12-17T04:55:07;2.47;70.93
74178;DHT22;62540;48.456;-4.456;2022-12-17T04:57:51;2.47;71.03
74178;DHT22;62540;48.456;-4.456;2022-12-17T05:00:35;2.45;70.85
74178;DHT22;62540;48.456;-4.456;2022-12-17T05:03:19;2.48;70.64
74178;DHT22;62540;48.456;-4.456;2022-12-17T05:06:03;2.50;70.70
74178;DHT22;62540;48.456;-4.456;2022-12-17T05:08:48;2.50;70.97
74178;DHT22;62540;48.456;-4.456;2022-12-17T05:11:36;2.48;70.95
74178;DHT22;62540;48.456;-4.456;2022-12-17T05:14:20;2.50;70.66
74178;DHT22;62540;48.456;-4.456;2022-12-17T05:17:05;2.48;70.30
74178;DHT22;62540;48.456;-4.456;2022-12-17T05:19:49;2.50;70.28
74178;DHT22;62540;48.456;-4.456;2022-12-17T05:22:33;2.47;70.28
74178;DHT22;62540;48.456;-4.456;2022-12-17T05:25:17;2.47;70.22
74178;DHT22;62540;48.456;-4.456;2022-12-17T05:28:01;2.44;70.62
74178;DHT22;62540;48.456;-4.456;2022-12-17T05:30:54;2.44;70.35
74178;DHT22;62540;48.456;-4.456;2022-12-17T05:33:38;2.45;70.62
74178;DHT22;62540;48.456;-4.456;2022-12-17T05:36:22;2.41;70.86
74178;DHT22;62540;48.456;-4.456;2022-12-17T05:39:06;2.41;70.47
74178;DHT22;62540;48.456;-4.456;2022-12-17T05:41:50;2.43;70.33
74178;DHT22;62540;48.456;-4.456;2022-12-17T05:44:34;2.43;70.23
74178;DHT22;62540;48.456;-4.456;2022-12-17T05:47:18;2.44;70.43
74178;DHT22;62540;48.456;-4.456;2022-12-17T05:50:02;2.43;70.55
74178;DHT22;62540;48.456;-4.456;2022-12-17T05:52:46;2.43;70.29
74178;DHT22;62540;48.456;-4.456;2022-12-17T05:55:30;2.38;70.27
74178;DHT22;62540;48.456;-4.456;2022-12-17T05:58:14;2.41;70.15
74178;DHT22;62540;48.456;-4.456;2022-12-17T06:01:01;2.38;70.14
74178;DHT22;62540;48.456;-4.456;2022-12-17T06:03:45;2.37;70.10
74178;DHT22;62540;48.456;-4.456;2022-12-17T06:06:29;2.36;70.12
74178;DHT22;62540;48.456;-4.456;2022-12-17T06:09:13;2.37;70.20
74178;DHT22;62540;48.456;-4.456;2022-12-17T06:11:57;2.34;70.19
74178;DHT22;62540;48.456;-4.456;2022-12-17T06:14:41;2.34;70.15
74178;DHT22;62540;48.456;-4.456;2022-12-17T06:17:25;2.37;69.91
74178;DHT22;62540;48.456;-4.456;2022-12-17T06:20:09;2.37;69.69
74178;DHT22;62540;48.456;-4.456;2022-12-17T06:23:01;2.36;69.64
74178;DHT22;62540;48.456;-4.456;2022-12-17T06:25:45;2.36;69.59
74178;DHT22;62540;48.456;-4.456;2022-12-17T06:28:30;2.36;69.55
74178;DHT22;62540;48.456;-4.456;2022-12-17T06:31:14;2.37;69.59
74178;DHT22;62540;48.456;-4.456;2022-12-17T06:33:58;2.37;69.59
74178;DHT22;62540;48.456;-4.456;2022-12-17T06:36:41;2.32;69.50
74178;DHT22;62540;48.456;-4.456;2022-12-17T06:39:25;2.32;69.53
74178;DHT22;62540;48.456;-4.456;2022-12-17T06:42:09;2.30;69.58
74178;DHT22;62540;48.456;-4.456;2022-12-17T06:44:53;2.27;69.44
74178;DHT22;62540;48.456;-4.456;2022-12-17T06:47:37;2.32;69.30
74178;DHT22;62540;48.456;-4.456;2022-12-17T06:50:21;2.29;69.08
74178;DHT22;62540;48.456;-4.456;2022-12-17T06:53:05;2.33;69.06
74178;DHT22;62540;48.456;-4.456;2022-12-17T06:55:50;2.26;68.87
74178;DHT22;62540;48.456;-4.456;2022-12-17T06:58:34;2.24;69.04
74178;DHT22;62540;48.456;-4.456;2022-12-17T07:01:18;2.24;68.89
74178;DHT22;62540;48.456;-4.456;2022-12-17T07:04:02;2.22;68.90
74178;DHT22;62540;48.456;-4.456;2022-12-17T07:06:46;2.20;69.01
74178;DHT22;62540;48.456;-4.456;2022-12-17T07:09:30;2.19;68.96
74178;DHT22;62540;48.456;-4.456;2022-12-17T07:12:14;2.17;68.79
74178;DHT22;62540;48.456;-4.456;2022-12-17T07:14:58;2.14;68.82
74178;DHT22;62540;48.456;-4.456;2022-12-17T07:17:42;2.12;68.84
74178;DHT22;62540;48.456;-4.456;2022-12-17T07:20:25;2.14;68.95
74178;DHT22;62540;48.456;-4.456;2022-12-17T07:23:09;2.10;68.98
74178;DHT22;62540;48.456;-4.456;2022-12-17T07:25:56;2.13;69.03
74178;DHT22;62540;48.456;-4.456;2022-12-17T07:28:40;2.17;68.98
74178;DHT22;62540;48.456;-4.456;2022-12-17T07:31:24;2.16;68.95
74178;DHT22;62540;48.456;-4.456;2022-12-17T07:34:08;2.16;68.99
74178;DHT22;62540;48.456;-4.456;2022-12-17T07:36:52;2.17;69.06
74178;DHT22;62540;48.456;-4.456;2022-12-17T07:39:37;2.19;69.09
74178;DHT22;62540;48.456;-4.456;2022-12-17T07:42:21;2.19;69.19
74178;DHT22;62540;48.456;-4.456;2022-12-17T07:45:06;2.17;69.29
74178;DHT22;62540;48.456;-4.456;2022-12-17T07:47:51;2.17;69.56
74178;DHT22;62540;48.456;-4.456;2022-12-17T07:50:35;2.12;69.72
74178;DHT22;62540;48.456;-4.456;2022-12-17T07:53:19;2.14;69.67
74178;DHT22;62540;48.456;-4.456;2022-12-17T07:56:03;2.19;69.60
74178;DHT22;62540;48.456;-4.456;2022-12-17T07:58:47;2.20;69.56
74178;DHT22;62540;48.456;-4.456;2022-12-17T08:01:31;2.14;69.71
74178;DHT22;62540;48.456;-4.456;2022-12-17T08:04:15;2.17;69.60
74178;DHT22;62540;48.456;-4.456;2022-12-17T08:06:59;2.17;69.66
74178;DHT22;62540;48.456;-4.456;2022-12-17T08:09:42;2.17;69.69
74178;DHT22;62540;48.456;-4.456;2022-12-17T08:12:26;2.19;69.69
74178;DHT22;62540;48.456;-4.456;2022-12-17T08:15:10;2.19;69.41
74178;DHT22;62540;48.456;-4.456;2022-12-17T08:17:59;2.19;69.54
74178;DHT22;62540;48.456;-4.456;2022-12-17T08:20:43;2.17;69.50
74178;DHT22;62540;48.456;-4.456;2022-12-17T08:23:27;2.16;69.52
74178;DHT22;62540;48.456;-4.456;2022-12-17T08:26:11;2.19;69.53
74178;DHT22;62540;48.456;-4.456;2022-12-17T08:28:55;2.23;69.42
74178;DHT22;62540;48.456;-4.456;2022-12-17T08:31:39;2.19;69.28
74178;DHT22;62540;48.456;-4.456;2022-12-17T08:34:23;2.20;69.34
74178;DHT22;62540;48.456;-4.456;2022-12-17T08:37:07;2.23;69.24
74178;DHT22;62540;48.456;-4.456;2022-12-17T08:39:50;2.24;69.24
74178;DHT22;62540;48.456;-4.456;2022-12-17T08:42:34;2.30;69.26
74178;DHT22;62540;48.456;-4.456;2022-12-17T08:45:18;2.33;69.12
74178;DHT22;62540;48.456;-4.456;2022-12-17T08:48:07;2.41;68.96
74178;DHT22;62540;48.456;-4.456;2022-12-17T08:50:51;2.43;68.98
74178;DHT22;62540;48.456;-4.456;2022-12-17T08:53:35;2.47;68.98
74178;DHT22;62540;48.456;-4.456;2022-12-17T08:56:20;2.50;68.87
74178;DHT22;62540;48.456;-4.456;2022-12-17T08:59:03;2.55;68.65
74178;DHT22;62540;48.456;-4.456;2022-12-17T09:01:48;2.57;68.64
74178;DHT22;62540;48.456;-4.456;2022-12-17T09:04:32;2.58;68.47
74178;DHT22;62540;48.456;-4.456;2022-12-17T09:07:16;2.57;68.61
74178;DHT22;62540;48.456;-4.456;2022-12-17T09:10:00;2.62;68.39
74178;DHT22;62540;48.456;-4.456;2022-12-17T09:12:44;2.66;68.27
74178;DHT22;62540;48.456;-4.456;2022-12-17T09:15:28;2.68;68.10
74178;DHT22;62540;48.456;-4.456;2022-12-17T09:18:12;2.71;68.14
74178;DHT22;62540;48.456;-4.456;2022-12-17T09:20:55;2.77;68.22
74178;DHT22;62540;48.456;-4.456;2022-12-17T09:23:40;2.81;68.04
74178;DHT22;62540;48.456;-4.456;2022-12-17T09:26:24;2.84;67.83
74178;DHT22;62540;48.456;-4.456;2022-12-17T09:29:12;2.88;67.90
74178;DHT22;62540;48.456;-4.456;2022-12-17T09:31:56;2.87;67.91
74178;DHT22;62540;48.456;-4.456;2022-12-17T09:34:40;2.89;68.03
74178;DHT22;62540;48.456;-4.456;2022-12-17T09:37:24;2.88;67.91
74178;DHT22;62540;48.456;-4.456;2022-12-17T09:40:15;2.87;68.00
74178;DHT22;62540;48.456;-4.456;2022-12-17T09:43:05;2.93;68.05
74178;DHT22;62540;48.456;-4.456;2022-12-17T09:46:05;2.92;67.62
74178;DHT22;62540;48.456;-4.456;2022-12-17T09:49:13;2.95;67.93
74178;DHT22;62540;48.456;-4.456;2022-12-17T09:51:59;3.02;67.77
74178;DHT22;62540;48.456;-4.456;2022-12-17T09:54:47;3.03;67.73
74178;DHT22;62540;48.456;-4.456;2022-12-17T09:57:34;3.05;67.92
74178;DHT22;62540;48.456;-4.456;2022-12-17T10:00:22;3.11;68.05
74178;DHT22;62540;48.456;-4.456;2022-12-17T10:03:15;3.13;67.85
74178;DHT22;62540;48.456;-4.456;2022-12-17T10:06:08;3.20;68.02
74178;DHT22;62540;48.456;-4.456;2022-12-17T10:08:58;3.26;68.04
74178;DHT22;62540;48.456;-4.456;2022-12-17T10:11:43;3.44;67.91
74178;DHT22;62540;48.456;-4.456;2022-12-17T10:14:27;3.63;67.63
74178;DHT22;62540;48.456;-4.456;2022-12-17T10:17:17;3.84;67.27
74178;DHT22;62540;48.456;-4.456;2022-12-17T10:20:17;4.13;67.15
74178;DHT22;62540;48.456;-4.456;2022-12-17T10:23:04;4.46;66.49
74178;DHT22;62540;48.456;-4.456;2022-12-17T10:25:55;4.73;65.19
74178;DHT22;62540;48.456;-4.456;2022-12-17T10:28:40;4.98;64.87
74178;DHT22;62540;48.456;-4.456;2022-12-17T10:31:28;5.28;64.48
74178;DHT22;62540;48.456;-4.456;2022-12-17T10:34:19;5.56;63.60
74178;DHT22;62540;48.456;-4.456;2022-12-17T10:37:04;5.81;61.29
74178;DHT22;62540;48.456;-4.456;2022-12-17T10:39:57;6.10;61.21
74178;DHT22;62540;48.456;-4.456;2022-12-17T10:42:41;6.29;61.20
74178;DHT22;62540;48.456;-4.456;2022-12-17T10:45:31;6.55;61.57
74178;DHT22;62540;48.456;-4.456;2022-12-17T10:48:30;6.82;60.98
74178;DHT22;62540;48.456;-4.456;2022-12-17T10:51:33;7.06;59.43
74178;DHT22;62540;48.456;-4.456;2022-12-17T10:54:24;7.20;58.51
74178;DHT22;62540;48.456;-4.456;2022-12-17T11:00:31;7.54;59.23
74178;DHT22;62540;48.456;-4.456;2022-12-17T11:06:11;7.86;57.51
74178;DHT22;62540;48.456;-4.456;2022-12-17T11:08:56;8.10;57.24
74178;DHT22;62540;48.456;-4.456;2022-12-17T11:11:41;8.21;56.67
74178;DHT22;62540;48.456;-4.456;2022-12-17T11:14:26;8.38;56.98
74178;DHT22;62540;48.456;-4.456;2022-12-17T11:17:14;8.60;55.18
74178;DHT22;62540;48.456;-4.456;2022-12-17T11:20:05;8.72;54.51
74178;DHT22;62540;48.456;-4.456;2022-12-17T11:22:53;8.98;54.57
74178;DHT22;62540;48.456;-4.456;2022-12-17T11:25:49;9.19;52.85
74178;DHT22;62540;48.456;-4.456;2022-12-17T11:28:35;9.39;53.77
74178;DHT22;62540;48.456;-4.456;2022-12-17T11:41:24;9.88;51.56
74178;DHT22;62540;48.456;-4.456;2022-12-17T11:47:22;9.81;47.28
74178;DHT22;62540;48.456;-4.456;2022-12-17T11:50:30;9.71;48.02
74178;DHT22;62540;48.456;-4.456;2022-12-17T11:56:44;10.10;50.37
74178;DHT22;62540;48.456;-4.456;2022-12-17T11:59:50;10.20;50.41
74178;DHT22;62540;48.456;-4.456;2022-12-17T12:05:59;10.35;50.50
74178;DHT22;62540;48.456;-4.456;2022-12-17T12:09:14;10.50;46.55
74178;DHT22;62540;48.456;-4.456;2022-12-17T12:15:07;10.40;44.18
74178;DHT22;62540;48.456;-4.456;2022-12-17T12:18:03;10.36;43.51
74178;DHT22;62540;48.456;-4.456;2022-12-17T12:27:00;10.40;47.40
74178;DHT22;62540;48.456;-4.456;2022-12-17T12:30:09;10.39;46.67
74178;DHT22;62540;48.456;-4.456;2022-12-17T12:36:19;10.37;46.20
74178;DHT22;62540;48.456;-4.456;2022-12-17T12:39:04;10.37;45.38
74178;DHT22;62540;48.456;-4.456;2022-12-17T12:42:07;10.37;43.74
74178;DHT22;62540;48.456;-4.456;2022-12-17T12:45:15;10.18;46.05
74178;DHT22;62540;48.456;-4.456;2022-12-17T12:48:17;10.23;46.25
74178;DHT22;62540;48.456;-4.456;2022-12-17T12:51:11;10.25;45.99
74178;DHT22;62540;48.456;-4.456;2022-12-17T12:53:59;10.15;43.82
74178;DHT22;62540;48.456;-4.456;2022-12-17T12:56:44;9.92;42.25
74178;DHT22;62540;48.456;-4.456;2022-12-17T12:59:33;9.81;42.50
74178;DHT22;62540;48.456;-4.456;2022-12-17T13:05:22;9.39;45.70
74178;DHT22;62540;48.456;-4.456;2022-12-17T13:08:20;9.29;46.69
74178;DHT22;62540;48.456;-4.456;2022-12-17T13:10:47;9.27;46.45
74178;DHT22;62540;48.456;-4.456;2022-12-17T13:15:52;9.10;46.88
74178;DHT22;62540;48.456;-4.456;2022-12-17T13:18:23;9.12;47.27
74178;DHT22;62540;48.456;-4.456;2022-12-17T13:20:59;9.10;46.83
74178;DHT22;62540;48.456;-4.456;2022-12-17T13:23:28;9.05;48.23
74178;DHT22;62540;48.456;-4.456;2022-12-17T13:26:23;8.99;46.53
74178;DHT22;62540;48.456;-4.456;2022-12-17T13:31:25;8.95;47.86
74178;DHT22;62540;48.456;-4.456;2022-12-17T13:36:56;8.85;48.52
74178;DHT22;62540;48.456;-4.456;2022-12-17T13:42:34;8.85;47.49
74178;DHT22;62540;48.456;-4.456;2022-12-17T13:45:01;8.83;48.79
74178;DHT22;62540;48.456;-4.456;2022-12-17T13:47:29;8.86;48.22
74178;DHT22;62540;48.456;-4.456;2022-12-17T13:49:58;8.85;48.70
74178;DHT22;62540;48.456;-4.456;2022-12-17T13:52:28;8.83;48.11
74178;DHT22;62540;48.456;-4.456;2022-12-17T13:55:08;8.75;47.99
74178;DHT22;62540;48.456;-4.456;2022-12-17T13:57:36;8.75;47.55
74178;DHT22;62540;48.456;-4.456;2022-12-17T14:00:02;8.61;47.75
74178;DHT22;62540;48.456;-4.456;2022-12-17T14:02:31;8.54;46.78
74178;DHT22;62540;48.456;-4.456;2022-12-17T14:05:02;8.45;47.92
74178;DHT22;62540;48.456;-4.456;2022-12-17T14:07:28;8.38;48.30
74178;DHT22;62540;48.456;-4.456;2022-12-17T14:09:55;8.37;48.73
74178;DHT22;62540;48.456;-4.456;2022-12-17T14:12:25;8.41;48.74
74178;DHT22;62540;48.456;-4.456;2022-12-17T14:15:02;8.34;47.55
74178;DHT22;62540;48.456;-4.456;2022-12-17T14:17:35;8.23;47.45
74178;DHT22;62540;48.456;-4.456;2022-12-17T14:20:07;8.16;47.43
74178;DHT22;62540;48.456;-4.456;2022-12-17T14:22:38;8.02;45.71
74178;DHT22;62540;48.456;-4.456;2022-12-17T14:25:16;7.85;45.61
74178;DHT22;62540;48.456;-4.456;2022-12-17T14:30:43;7.75;48.28
74178;DHT22;62540;48.456;-4.456;2022-12-17T14:33:39;7.79;48.77
74178;DHT22;62540;48.456;-4.456;2022-12-17T14:38:32;7.73;48.46
74178;DHT22;62540;48.456;-4.456;2022-12-17T14:41:11;7.62;48.86
74178;DHT22;62540;48.456;-4.456;2022-12-17T14:44:00;7.52;47.99
74178;DHT22;62540;48.456;-4.456;2022-12-17T14:46:27;7.50;49.39
74178;DHT22;62540;48.456;-4.456;2022-12-17T14:48:58;7.38;49.62
74178;DHT22;62540;48.456;-4.456;2022-12-17T14:51:38;7.36;50.26
74178;DHT22;62540;48.456;-4.456;2022-12-17T14:56:30;7.41;50.17
74178;DHT22;62540;48.456;-4.456;2022-12-17T14:58:55;7.45;50.18
74178;DHT22;62540;48.456;-4.456;2022-12-17T15:01:21;7.47;50.59
74178;DHT22;62540;48.456;-4.456;2022-12-17T15:03:46;7.50;50.77
74178;DHT22;62540;48.456;-4.456;2022-12-17T15:06:15;7.50;50.76
74178;DHT22;62540;48.456;-4.456;2022-12-17T15:08:44;7.45;50.47
74178;DHT22;62540;48.456;-4.456;2022-12-17T15:11:20;7.40;51.03
74178;DHT22;62540;48.456;-4.456;2022-12-17T15:13:46;7.31;50.96
74178;DHT22;62540;48.456;-4.456;2022-12-17T15:16:12;7.27;51.73
74178;DHT22;62540;48.456;-4.456;2022-12-17T15:18:37;7.24;51.87
74178;DHT22;62540;48.456;-4.456;2022-12-17T15:21:03;7.20;51.33
74178;DHT22;62540;48.456;-4.456;2022-12-17T15:23:29;7.20;50.75
74178;DHT22;62540;48.456;-4.456;2022-12-17T15:25:55;7.14;51.86
74178;DHT22;62540;48.456;-4.456;2022-12-17T15:28:21;7.11;51.53
74178;DHT22;62540;48.456;-4.456;2022-12-17T15:30:48;7.01;51.95
74178;DHT22;62540;48.456;-4.456;2022-12-17T15:33:14;7.01;52.25
74178;DHT22;62540;48.456;-4.456;2022-12-17T15:35:40;7.06;52.18
74178;DHT22;62540;48.456;-4.456;2022-12-17T15:38:07;7.11;52.53
74178;DHT22;62540;48.456;-4.456;2022-12-17T15:40:32;7.13;52.30
74178;DHT22;62540;48.456;-4.456;2022-12-17T15:42:59;7.14;52.04
74178;DHT22;62540;48.456;-4.456;2022-12-17T15:45:42;7.08;51.98
74178;DHT22;62540;48.456;-4.456;2022-12-17T15:48:09;7.07;52.21
74178;DHT22;62540;48.456;-4.456;2022-12-17T15:50:35;7.04;52.51
74178;DHT22;62540;48.456;-4.456;2022-12-17T15:53:01;7.03;52.74
74178;DHT22;62540;48.456;-4.456;2022-12-17T15:55:27;7.07;53.25
74178;DHT22;62540;48.456;-4.456;2022-12-17T15:57:52;7.03;52.38
74178;DHT22;62540;48.456;-4.456;2022-12-17T16:00:18;7.01;53.42
74178;DHT22;62540;48.456;-4.456;2022-12-17T16:02:45;6.99;52.56
74178;DHT22;62540;48.456;-4.456;2022-12-17T16:05:11;6.96;52.98
74178;DHT22;62540;48.456;-4.456;2022-12-17T16:07:36;6.92;52.16
74178;DHT22;62540;48.456;-4.456;2022-12-17T16:10:03;6.89;52.80
74178;DHT22;62540;48.456;-4.456;2022-12-17T16:12:29;6.82;52.33
74178;DHT22;62540;48.456;-4.456;2022-12-17T16:14:54;6.71;52.94
74178;DHT22;62540;48.456;-4.456;2022-12-17T16:17:19;6.65;53.33
74178;DHT22;62540;48.456;-4.456;2022-12-17T16:19:45;6.65;53.39
74178;DHT22;62540;48.456;-4.456;2022-12-17T16:22:10;6.57;52.86
74178;DHT22;62540;48.456;-4.456;2022-12-17T16:24:36;6.50;53.63
74178;DHT22;62540;48.456;-4.456;2022-12-17T16:27:01;6.44;53.44
74178;DHT22;62540;48.456;-4.456;2022-12-17T16:29:27;6.35;53.86
74178;DHT22;62540;48.456;-4.456;2022-12-17T16:31:52;6.27;53.90
74178;DHT22;62540;48.456;-4.456;2022-12-17T16:34:18;6.14;54.00
74178;DHT22;62540;48.456;-4.456;2022-12-17T16:36:43;6.11;54.31
74178;DHT22;62540;48.456;-4.456;2022-12-17T16:39:14;6.08;54.30
74178;DHT22;62540;48.456;-4.456;2022-12-17T16:41:39;6.03;54.60
74178;DHT22;62540;48.456;-4.456;2022-12-17T16:44:05;6.06;54.84
74178;DHT22;62540;48.456;-4.456;2022-12-17T16:46:39;6.06;54.93
74178;DHT22;62540;48.456;-4.456;2022-12-17T16:49:05;5.98;54.61
74178;DHT22;62540;48.456;-4.456;2022-12-17T16:51:31;5.96;54.05
74178;DHT22;62540;48.456;-4.456;2022-12-17T16:53:57;5.87;53.95
74178;DHT22;62540;48.456;-4.456;2022-12-17T16:56:26;5.78;54.26
74178;DHT22;62540;48.456;-4.456;2022-12-17T16:58:52;5.73;54.88
74178;DHT22;62540;48.456;-4.456;2022-12-17T17:01:19;5.69;54.22
74178;DHT22;62540;48.456;-4.456;2022-12-17T17:03:45;5.65;55.19
74178;DHT22;62540;48.456;-4.456;2022-12-17T17:06:10;5.59;55.38
74178;DHT22;62540;48.456;-4.456;2022-12-17T17:08:37;5.50;54.82
74178;DHT22;62540;48.456;-4.456;2022-12-17T17:13:36;5.48;55.21
74178;DHT22;62540;48.456;-4.456;2022-12-17T17:16:02;5.49;55.35
74178;DHT22;62540;48.456;-4.456;2022-12-17T17:18:28;5.48;55.85
74178;DHT22;62540;48.456;-4.456;2022-12-17T17:20:53;5.45;55.51
74178;DHT22;62540;48.456;-4.456;2022-12-17T17:23:20;5.45;55.46
74178;DHT22;62540;48.456;-4.456;2022-12-17T17:25:45;5.43;55.60
74178;DHT22;62540;48.456;-4.456;2022-12-17T17:28:11;5.46;55.82
74178;DHT22;62540;48.456;-4.456;2022-12-17T17:30:36;5.40;55.64
74178;DHT22;62540;48.456;-4.456;2022-12-17T17:33:02;5.39;55.49
74178;DHT22;62540;48.456;-4.456;2022-12-17T17:35:27;5.28;55.71
74178;DHT22;62540;48.456;-4.456;2022-12-17T17:37:52;5.22;56.30
74178;DHT22;62540;48.456;-4.456;2022-12-17T17:40:18;5.09;56.42
74178;DHT22;62540;48.456;-4.456;2022-12-17T17:42:43;5.09;56.84
74178;DHT22;62540;48.456;-4.456;2022-12-17T17:45:09;4.99;56.79
74178;DHT22;62540;48.456;-4.456;2022-12-17T17:47:34;4.98;57.15
74178;DHT22;62540;48.456;-4.456;2022-12-17T17:50:00;4.98;56.88
74178;DHT22;62540;48.456;-4.456;2022-12-17T17:52:25;4.98;56.97
74178;DHT22;62540;48.456;-4.456;2022-12-17T17:54:51;4.97;57.09
74178;DHT22;62540;48.456;-4.456;2022-12-17T17:57:16;4.97;57.05
74178;DHT22;62540;48.456;-4.456;2022-12-17T17:59:41;4.91;56.97
74178;DHT22;62540;48.456;-4.456;2022-12-17T18:02:09;4.84;57.10
74178;DHT22;62540;48.456;-4.456;2022-12-17T18:04:34;4.81;57.52